Time;durP1;ratioP1;P1;durP2;ratioP2;P2;SDS_P1;SDS_P2;PMS_P1;PMS_P2;Temp;Humidity;BMP_temperature;BMP_pressure;BME280_temperature;BME280_humidity;BME280_pressure;Samples;Min_cycle;Max_cycle;Signal;HPM_P1;HPM_P2
2021/06/21 00:02:23;;;;;;;4.75;2.58;;;;;;;;;;5108993;28;20023;-68
2021/06/21 00:06:59;;;;;;;7.55;3.50;;;;;;;;;;5126362;27;20384;-68
2021/06/21 00:09:25;;;;;;;3.45;2.28;;;;;;;;;;5110424;28;20110;-68
2021/06/21 00:11:51;;;;;;;4.45;2.85;;;;;;;;;;5109987;28;20467;-68
2021/06/21 00:14:17;;;;;;;4.80;2.80;;;;;;;;;;5110372;28;20028;-68
2021/06/21 00:16:44;;;;;;;4.35;2.72;;;;;;;;;;5110356;28;20020;-68
2021/06/21 00:19:10;;;;;;;7.93;3.22;;;;;;;;;;5109682;28;20035;-68
2021/06/21 00:22:08;;;;;;;5.45;3.13;;;;;;;;;;5126319;27;20377;-68
2021/06/21 00:24:34;;;;;;;6.28;3.10;;;;;;;;;;5109338;28;20024;-68
2021/06/21 00:27:00;;;;;;;5.40;2.88;;;;;;;;;;5110212;28;20081;-68
2021/06/21 00:29:26;;;;;;;4.90;2.75;;;;;;;;;;5110350;28;20031;-68
2021/06/21 00:31:52;;;;;;;4.93;3.17;;;;;;;;;;5110325;28;20042;-68
2021/06/21 00:34:19;;;;;;;4.80;2.90;;;;;;;;;;5108606;28;20382;-68
2021/06/21 00:39:15;;;;;;;5.50;3.47;;;;;;;;;;5125945;27;20385;-68
2021/06/21 00:41:42;;;;;;;6.15;3.40;;;;;;;;;;5110477;28;20032;-68
2021/06/21 00:44:39;;;;;;;5.25;2.90;;;;;;;;;;5126487;27;20389;-68
2021/06/21 00:47:05;;;;;;;7.18;3.63;;;;;;;;;;5110148;28;20111;-68
2021/06/21 00:49:32;;;;;;;4.63;2.60;;;;;;;;;;5110387;28;20078;-68
2021/06/21 00:51:58;;;;;;;8.75;3.45;;;;;;;;;;5110518;28;20107;-67
2021/06/21 00:54:24;;;;;;;7.15;3.72;;;;;;;;;;5108659;28;20023;-68
2021/06/21 00:57:15;;;;;;;5.82;3.67;;;;;;;;;;5126627;27;20468;-68
2021/06/21 00:59:42;;;;;;;6.65;3.90;;;;;;;;;;5110505;28;20089;-68
2021/06/21 01:02:08;;;;;;;7.00;3.50;;;;;;;;;;5109990;28;20044;-68
2021/06/21 01:05:00;;;;;;;6.53;4.00;;;;;;;;;;5150683;27;20114;-68
2021/06/21 01:07:28;;;;;;;7.03;3.72;;;;;;;;;;5130684;28;20034;-68
2021/06/21 01:10:21;;;;;;;7.57;3.88;;;;;;;;;;5126294;27;20377;-67
2021/06/21 01:12:47;;;;;;;6.45;3.42;;;;;;;;;;5110450;28;20085;-68
2021/06/21 01:15:31;;;;;;;6.28;3.63;;;;;;;;;;5125995;27;20864;-68
2021/06/21 01:18:11;;;;;;;5.47;3.22;;;;;;;;;;5110462;28;20535;-68
2021/06/21 01:20:56;;;;;;;4.93;2.92;;;;;;;;;;5110467;28;20099;-68
2021/06/21 01:23:34;;;;;;;5.05;2.90;;;;;;;;;;5109915;28;20026;-67
2021/06/21 01:27:35;;;;;;;6.05;2.83;;;;;;;;;;5126557;27;20389;-67
2021/06/21 01:30:09;;;;;;;7.50;2.85;;;;;;;;;;5110069;28;20028;-68
2021/06/21 01:32:35;;;;;;;6.28;3.58;;;;;;;;;;5110388;28;20096;-68
2021/06/21 01:36:44;;;;;;;6.97;3.13;;;;;;;;;;5126022;27;20384;-68
2021/06/21 01:39:11;;;;;;;6.03;3.60;;;;;;;;;;5110428;28;20024;-68
2021/06/21 01:41:39;;;;;;;6.35;3.72;;;;;;;;;;5110413;28;20028;-67
2021/06/21 01:45:58;;;;;;;5.78;3.38;;;;;;;;;;5126741;27;20386;-68
2021/06/21 01:49:35;;;;;;;4.47;3.00;;;;;;;;;;5126314;27;20373;-68
2021/06/21 01:52:02;;;;;;;5.00;3.10;;;;;;;;;;5110460;28;20126;-68
2021/06/21 01:57:20;;;;;;;5.60;3.47;;;;;;;;;;5125874;27;20373;-68
2021/06/21 01:59:49;;;;;;;5.20;3.05;;;;;;;;;;5110313;28;20034;-68
2021/06/21 02:02:15;;;;;;;5.32;3.40;;;;;;;;;;5110417;28;20020;-68
2021/06/21 02:04:56;;;;;;;4.55;3.20;;;;;;;;;;5126114;27;20863;-68
2021/06/21 02:07:23;;;;;;;5.70;3.20;;;;;;;;;;5110667;28;20031;-68
2021/06/21 02:10:32;;;;;;;5.28;3.50;;;;;;;;;;5133331;27;20573;-68
2021/06/21 02:13:05;;;;;;;5.93;3.63;;;;;;;;;;5126148;27;20385;-68
2021/06/21 02:15:31;;;;;;;7.10;3.42;;;;;;;;;;5109173;28;20506;-68
2021/06/21 02:17:58;;;;;;;6.65;3.83;;;;;;;;;;5108703;28;20032;-68
2021/06/21 02:20:24;;;;;;;4.53;2.92;;;;;;;;;;5110375;28;20020;-68
2021/06/21 02:22:50;;;;;;;7.38;3.97;;;;;;;;;;5110366;28;20081;-67
2021/06/21 02:25:17;;;;;;;4.68;2.90;;;;;;;;;;5108677;28;20107;-68
2021/06/21 02:29:54;;;;;;;4.68;2.90;;;;;;;;;;5126382;27;20374;-68
2021/06/21 02:32:21;;;;;;;6.25;3.33;;;;;;;;;;5110071;28;20035;-68
2021/06/21 02:34:48;;;;;;;6.07;3.20;;;;;;;;;;5109146;28;20023;-68
2021/06/21 02:39:01;;;;;;;6.13;3.47;;;;;;;;;;5126043;27;20872;-68
2021/06/21 02:43:31;;;;;;;6.13;3.53;;;;;;;;;;5126366;27;20385;-68
2021/06/21 02:46:20;;;;;;;5.63;3.22;;;;;;;;;;5126216;27;20860;-68
2021/06/21 02:48:46;;;;;;;4.82;3.08;;;;;;;;;;5110960;28;20032;-68
2021/06/21 02:52:52;;;;;;;3.88;2.80;;;;;;;;;;5126392;27;20384;-68
2021/06/21 02:55:21;;;;;;;6.43;3.63;;;;;;;;;;5110540;28;20356;-67
2021/06/21 02:57:53;;;;;;;6.93;3.25;;;;;;;;;;5110440;28;20206;-68
2021/06/21 03:00:20;;;;;;;5.57;3.63;;;;;;;;;;5109975;28;20020;-68
2021/06/21 03:02:47;;;;;;;6.03;3.63;;;;;;;;;;5110329;28;20027;-68
2021/06/21 03:05:15;;;;;;;4.97;3.47;;;;;;;;;;5109049;28;20368;-68
2021/06/21 03:07:42;;;;;;;9.25;4.75;;;;;;;;;;5109958;28;20098;-68
2021/06/21 03:10:09;;;;;;;8.02;4.20;;;;;;;;;;5108885;28;20027;-68
2021/06/21 03:14:14;;;;;;;6.90;3.60;;;;;;;;;;5125968;27;20388;-68
2021/06/21 03:16:41;;;;;;;6.20;3.60;;;;;;;;;;5110458;28;20047;-67
2021/06/21 03:19:08;;;;;;;6.97;4.20;;;;;;;;;;5110388;28;20026;-68
2021/06/21 03:21:34;;;;;;;7.57;4.10;;;;;;;;;;5109977;28;20063;-67
2021/06/21 03:24:00;;;;;;;5.80;3.58;;;;;;;;;;5110335;28;20103;-68
2021/06/21 03:26:27;;;;;;;5.43;3.45;;;;;;;;;;5110351;28;20020;-68
2021/06/21 03:30:19;;;;;;;6.38;3.70;;;;;;;;;;5126336;27;20377;-68
2021/06/21 03:32:47;;;;;;;6.63;3.40;;;;;;;;;;5109232;28;20146;-68
2021/06/21 03:36:44;;;;;;;5.10;3.30;;;;;;;;;;5125895;27;20373;-68
2021/06/21 03:39:10;;;;;;;8.38;4.70;;;;;;;;;;5110434;28;20089;-68
2021/06/21 03:41:36;;;;;;;5.57;3.65;;;;;;;;;;5110381;28;20016;-68
2021/06/21 03:44:03;;;;;;;6.43;3.65;;;;;;;;;;5110026;28;20422;-68
2021/06/21 03:46:29;;;;;;;6.65;3.55;;;;;;;;;;5110389;28;20020;-68
2021/06/21 03:48:55;;;;;;;7.97;4.43;;;;;;;;;;5110521;28;20484;-68
2021/06/21 03:51:22;;;;;;;7.32;4.57;;;;;;;;;;5109778;28;20034;-68
2021/06/21 03:53:49;;;;;;;6.18;3.78;;;;;;;;;;5108868;28;20035;-68
2021/06/21 03:56:24;;;;;;;6.97;4.28;;;;;;;;;;5170957;27;20397;-68
2021/06/21 04:01:20;;;;;;;7.93;4.47;;;;;;;;;;5126272;27;20380;-68
2021/06/21 04:05:37;;;;;;;5.78;3.65;;;;;;;;;;5125996;27;20377;-68
2021/06/21 04:08:04;;;;;;;8.60;4.28;;;;;;;;;;5109450;28;20077;-68
2021/06/21 04:10:30;;;;;;;7.63;3.95;;;;;;;;;;5110164;28;20023;-68
2021/06/21 04:12:56;;;;;;;5.13;3.33;;;;;;;;;;5109075;28;20034;-68
2021/06/21 04:15:30;;;;;;;6.10;3.50;;;;;;;;;;5110379;28;20020;-68
2021/06/21 04:18:01;;;;;;;5.88;3.58;;;;;;;;;;5110060;28;20050;-68
2021/06/21 04:20:28;;;;;;;9.23;3.78;;;;;;;;;;5109012;28;20026;-67
2021/06/21 04:22:55;;;;;;;7.43;3.78;;;;;;;;;;5110215;28;20036;-68
2021/06/21 04:25:21;;;;;;;7.68;4.20;;;;;;;;;;5109610;28;20088;-68
2021/06/21 04:27:48;;;;;;;6.70;3.70;;;;;;;;;;5110218;28;20072;-68
2021/06/21 04:30:16;;;;;;;6.07;3.47;;;;;;;;;;5108919;28;20384;-68
2021/06/21 04:32:42;;;;;;;8.30;3.88;;;;;;;;;;5109536;28;20499;-68
2021/06/21 04:35:10;;;;;;;7.20;3.95;;;;;;;;;;5110043;28;20467;-68
2021/06/21 04:38:50;;;;;;;5.68;3.50;;;;;;;;;;5126113;27;20385;-68
2021/06/21 04:43:04;;;;;;;5.45;3.13;;;;;;;;;;5126264;27;20384;-67
2021/06/21 04:45:30;;;;;;;7.10;3.38;;;;;;;;;;5110051;28;20039;-68
2021/06/21 04:48:07;;;;;;;4.93;3.00;;;;;;;;;;5126477;27;20380;-68
2021/06/21 04:50:36;;;;;;;7.00;3.58;;;;;;;;;;5109367;28;20487;-68
2021/06/21 04:53:02;;;;;;;7.45;5.00;;;;;;;;;;5109186;28;20022;-67
2021/06/21 04:55:29;;;;;;;6.93;3.65;;;;;;;;;;5106080;28;20055;-68
2021/06/21 04:57:55;;;;;;;6.40;3.60;;;;;;;;;;5107459;28;20024;-69
2021/06/21 05:00:22;;;;;;;3.60;2.20;;;;;;;;;;5108627;28;20030;-67
2021/06/21 05:02:49;;;;;;;4.22;2.42;;;;;;;;;;5106122;28;20103;-67
2021/06/21 05:05:16;;;;;;;4.65;2.50;;;;;;;;;;5107732;28;20031;-67
2021/06/21 05:07:43;;;;;;;3.55;2.25;;;;;;;;;;5108205;28;20029;-68
2021/06/21 05:10:12;;;;;;;4.97;3.08;;;;;;;;;;5108419;28;20027;-67
2021/06/21 05:12:39;;;;;;;6.70;3.75;;;;;;;;;;5109107;28;20469;-67
2021/06/21 05:17:17;;;;;;;6.53;3.08;;;;;;;;;;5123321;27;20381;-67
2021/06/21 05:19:44;;;;;;;4.07;2.58;;;;;;;;;;5107928;28;20034;-67
2021/06/21 05:22:11;;;;;;;5.35;2.72;;;;;;;;;;5108580;28;20023;-68
2021/06/21 05:24:37;;;;;;;4.22;2.80;;;;;;;;;;5109621;28;20019;-67
2021/06/21 05:27:56;;;;;;;4.47;2.30;;;;;;;;;;5122588;27;20388;-67
2021/06/21 05:30:23;;;;;;;5.65;2.45;;;;;;;;;;5108282;28;20108;-68
2021/06/21 05:34:55;;;;;;;4.68;2.20;;;;;;;;;;5125536;27;20440;-68
2021/06/21 05:37:21;;;;;;;6.20;2.78;;;;;;;;;;5109651;28;20034;-67
2021/06/21 05:39:47;;;;;;;5.03;2.80;;;;;;;;;;5109381;28;20022;-68
2021/06/21 05:42:14;;;;;;;4.35;2.47;;;;;;;;;;5109073;28;20030;-67
2021/06/21 05:44:41;;;;;;;5.68;2.30;;;;;;;;;;5109533;28;20519;-68
2021/06/21 05:47:24;;;;;;;8.57;3.10;;;;;;;;;;5163355;27;202859;-67
2021/06/21 05:49:51;;;;;;;4.85;2.85;;;;;;;;;;5148807;27;20527;-67
2021/06/21 05:52:17;;;;;;;7.60;3.42;;;;;;;;;;5150962;27;20023;-68
2021/06/21 05:54:43;;;;;;;8.40;2.92;;;;;;;;;;5150512;27;20027;-68
2021/06/21 05:58:25;;;;;;;5.22;2.65;;;;;;;;;;5129350;27;20651;-68
2021/06/21 06:00:52;;;;;;;4.25;2.47;;;;;;;;;;5130689;28;20024;-68
2021/06/21 06:03:18;;;;;;;4.80;2.40;;;;;;;;;;5127103;28;20023;-67
2021/06/21 06:05:44;;;;;;;3.95;2.22;;;;;;;;;;5130127;28;20451;-67
2021/06/21 06:08:11;;;;;;;5.00;2.13;;;;;;;;;;5128662;28;20062;-68
2021/06/21 06:10:37;;;;;;;3.78;2.03;;;;;;;;;;5128755;28;20019;-68
2021/06/21 06:13:04;;;;;;;3.72;2.13;;;;;;;;;;5128117;28;20043;-68
2021/06/21 06:15:31;;;;;;;4.38;2.10;;;;;;;;;;5129773;27;20058;-68
2021/06/21 06:17:57;;;;;;;6.70;2.10;;;;;;;;;;5129582;28;20039;-68
2021/06/21 06:20:23;;;;;;;4.32;2.20;;;;;;;;;;5128822;28;20114;-68
2021/06/21 06:22:49;;;;;;;5.00;2.63;;;;;;;;;;5129148;28;20023;-68
2021/06/21 06:25:16;;;;;;;5.20;2.47;;;;;;;;;;5128679;28;20015;-68
2021/06/21 06:27:43;;;;;;;3.33;2.00;;;;;;;;;;5126647;28;20026;-68
2021/06/21 06:30:11;;;;;;;7.25;2.00;;;;;;;;;;5128354;28;20072;-68
2021/06/21 06:32:38;;;;;;;4.38;2.25;;;;;;;;;;5128402;27;20075;-68
2021/06/21 06:35:05;;;;;;;4.10;1.92;;;;;;;;;;5129446;27;20486;-68
2021/06/21 06:37:31;;;;;;;4.85;2.85;;;;;;;;;;5128361;28;20036;-69
2021/06/21 06:39:58;;;;;;;3.53;2.28;;;;;;;;;;5148129;27;20398;-68
2021/06/21 06:42:24;;;;;;;3.35;1.85;;;;;;;;;;5149291;27;20050;-68
2021/06/21 06:44:50;;;;;;;2.58;1.70;;;;;;;;;;5147832;27;20043;-68
2021/06/21 06:47:16;;;;;;;3.00;1.75;;;;;;;;;;5146530;27;20054;-68
2021/06/21 06:49:42;;;;;;;4.63;2.13;;;;;;;;;;5145094;27;20485;-67
2021/06/21 06:52:09;;;;;;;6.80;2.13;;;;;;;;;;5146146;27;20023;-68
2021/06/21 06:56:57;;;;;;;4.55;2.00;;;;;;;;;;5146640;27;20553;-68
2021/06/21 06:57:31;;;;;;;3.22;1.90;;;;;;;;;;5159460;27;20401;-68
2021/06/21 06:59:57;;;;;;;3.47;2.22;;;;;;;;;;5167315;27;20023;-69
2021/06/21 07:02:24;;;;;;;4.55;1.80;;;;;;;;;;5149295;27;20023;-67
2021/06/21 07:04:51;;;;;;;3.13;1.73;;;;;;;;;;5131677;27;20023;-68
2021/06/21 07:07:18;;;;;;;4.03;2.45;;;;;;;;;;5149695;27;20022;-68
2021/06/21 07:09:45;;;;;;;2.95;1.90;;;;;;;;;;5136001;27;20043;-68
2021/06/21 07:12:11;;;;;;;4.00;1.90;;;;;;;;;;5136183;27;20023;-68
2021/06/21 07:14:38;;;;;;;6.18;2.90;;;;;;;;;;5109773;28;20471;-68
2021/06/21 07:18:30;;;;;;;3.85;2.05;;;;;;;;;;5081749;28;20384;-67
2021/06/21 07:20:56;;;;;;;3.22;1.88;;;;;;;;;;5048218;28;20044;-67
2021/06/21 07:23:23;;;;;;;3.35;1.92;;;;;;;;;;5049356;28;20047;-67
2021/06/21 07:25:49;;;;;;;4.18;2.47;;;;;;;;;;5042291;28;20080;-67
2021/06/21 07:28:16;;;;;;;4.10;2.53;;;;;;;;;;5047917;28;20025;-68
2021/06/21 07:30:46;;;;;;;3.95;2.30;;;;;;;;;;5047503;28;20083;-67
2021/06/21 07:33:13;;;;;;;4.55;2.30;;;;;;;;;;5048085;28;20029;-67
2021/06/21 07:36:34;;;;;;;3.35;2.17;;;;;;;;;;5124410;27;20386;-67
2021/06/21 07:39:00;;;;;;;4.97;2.80;;;;;;;;;;5109777;28;20119;-67
2021/06/21 07:41:27;;;;;;;4.47;2.20;;;;;;;;;;5108470;28;20019;-67
2021/06/21 07:43:53;;;;;;;3.30;2.20;;;;;;;;;;5106267;28;20058;-67
2021/06/21 07:46:19;;;;;;;3.53;2.13;;;;;;;;;;5108074;28;20131;-67
2021/06/21 07:48:46;;;;;;;4.10;2.25;;;;;;;;;;5108612;28;20364;-68
2021/06/21 07:51:14;;;;;;;4.50;2.38;;;;;;;;;;5109459;28;20414;-69
2021/06/21 07:53:40;;;;;;;5.53;2.55;;;;;;;;;;5108510;28;20047;-69
2021/06/21 07:56:07;;;;;;;3.63;2.20;;;;;;;;;;5108221;28;20092;-69
2021/06/21 07:58:33;;;;;;;4.05;2.58;;;;;;;;;;5101889;28;20028;-69
2021/06/21 08:01:00;;;;;;;5.28;2.40;;;;;;;;;;5088876;28;20111;-70
2021/06/21 08:03:27;;;;;;;5.55;2.53;;;;;;;;;;5087080;28;20506;-68
2021/06/21 08:05:53;;;;;;;6.18;2.80;;;;;;;;;;5088954;28;20034;-68
2021/06/21 08:08:20;;;;;;;4.38;2.25;;;;;;;;;;5087491;28;20008;-68
2021/06/21 08:10:46;;;;;;;4.28;2.50;;;;;;;;;;5086284;28;20024;-68
2021/06/21 08:13:13;;;;;;;4.50;2.50;;;;;;;;;;5087601;28;20021;-68
2021/06/21 08:15:39;;;;;;;5.53;2.80;;;;;;;;;;5087667;28;20419;-68
2021/06/21 08:19:25;;;;;;;3.95;2.78;;;;;;;;;;5126823;27;20168;-67
2021/06/21 08:21:51;;;;;;;3.92;2.72;;;;;;;;;;5129240;28;20577;-67
2021/06/21 08:24:18;;;;;;;3.33;2.13;;;;;;;;;;5128474;28;20026;-67
2021/06/21 08:26:44;;;;;;;4.60;2.85;;;;;;;;;;5128470;28;20523;-67
2021/06/21 08:29:10;;;;;;;6.43;2.90;;;;;;;;;;5127344;28;20028;-67
2021/06/21 08:31:36;;;;;;;5.85;3.47;;;;;;;;;;5109832;28;20024;-67
2021/06/21 08:34:05;;;;;;;5.13;3.05;;;;;;;;;;5106168;28;20548;-67
2021/06/21 08:36:32;;;;;;;5.82;3.15;;;;;;;;;;5104685;28;20054;-68
2021/06/21 08:38:58;;;;;;;5.60;2.78;;;;;;;;;;5105058;28;20118;-67
2021/06/21 08:41:24;;;;;;;8.25;3.72;;;;;;;;;;5107018;28;20024;-67
2021/06/21 08:43:50;;;;;;;4.75;3.08;;;;;;;;;;5106553;28;20028;-67
2021/06/21 08:46:18;;;;;;;5.40;2.92;;;;;;;;;;5105635;28;20077;-67
2021/06/21 08:48:46;;;;;;;4.32;2.67;;;;;;;;;;5105833;28;20253;-67
2021/06/21 08:51:13;;;;;;;6.60;3.05;;;;;;;;;;5105137;28;20076;-67
2021/06/21 08:53:40;;;;;;;4.95;3.10;;;;;;;;;;5097873;28;20039;-67
2021/06/21 08:56:07;;;;;;;4.82;2.90;;;;;;;;;;5083707;28;20024;-67
2021/06/21 08:58:34;;;;;;;5.05;2.67;;;;;;;;;;5084400;28;20032;-67
2021/06/21 09:01:00;;;;;;;4.70;2.80;;;;;;;;;;5086527;28;20021;-68
2021/06/21 09:03:26;;;;;;;7.07;2.55;;;;;;;;;;5085853;28;20041;-68
2021/06/21 09:05:53;;;;;;;6.78;3.03;;;;;;;;;;5079597;28;20028;-67
2021/06/21 09:08:19;;;;;;;4.60;2.90;;;;;;;;;;5091557;28;20024;-67
2021/06/21 09:10:45;;;;;;;3.38;2.20;;;;;;;;;;5121404;28;20031;-67
2021/06/21 09:13:18;;;;;;;7.18;2.90;;;;;;;;;;5126672;28;20031;-68
2021/06/21 09:15:56;;;;;;;7.38;3.38;;;;;;;;;;5125500;28;20129;-67
2021/06/21 09:18:35;;;;;;;5.07;3.13;;;;;;;;;;5138145;27;20042;-68
2021/06/21 09:21:20;;;;;;;4.30;3.15;;;;;;;;;;5119523;28;20023;-67
2021/06/21 09:23:47;;;;;;;7.43;3.60;;;;;;;;;;5128099;28;20034;-67
2021/06/21 09:26:18;;;;;;;4.78;3.00;;;;;;;;;;5106416;28;20155;-68
2021/06/21 09:28:45;;;;;;;3.25;2.42;;;;;;;;;;5123591;27;20028;-67
2021/06/21 09:31:11;;;;;;;5.57;2.75;;;;;;;;;;5133886;27;20288;-67
2021/06/21 09:33:37;;;;;;;4.50;2.95;;;;;;;;;;5131874;27;20030;-67
2021/06/21 09:36:04;;;;;;;5.38;3.10;;;;;;;;;;5130883;27;20386;-68
2021/06/21 09:38:30;;;;;;;5.60;3.30;;;;;;;;;;5132380;27;20024;-68
2021/06/21 09:40:59;;;;;;;6.00;3.42;;;;;;;;;;5133055;27;20019;-68
2021/06/21 09:43:27;;;;;;;6.00;3.13;;;;;;;;;;5117198;27;20023;-68
2021/06/21 09:46:10;;;;;;;6.13;3.40;;;;;;;;;;5112930;28;20020;-67
2021/06/21 09:48:36;;;;;;;4.78;2.95;;;;;;;;;;5113171;28;20028;-68
2021/06/21 09:51:19;;;;;;;6.55;3.35;;;;;;;;;;5096170;28;20031;-68
2021/06/21 09:54:12;;;;;;;4.93;3.10;;;;;;;;;;5121205;27;20019;-68
2021/06/21 09:56:38;;;;;;;6.47;3.50;;;;;;;;;;5128851;27;20061;-68
2021/06/21 09:59:21;;;;;;;7.15;3.20;;;;;;;;;;5125766;27;20486;-68
2021/06/21 10:02:00;;;;;;;4.22;2.92;;;;;;;;;;5132432;27;20431;-68
2021/06/21 10:04:26;;;;;;;5.13;3.22;;;;;;;;;;5091036;28;20020;-68
2021/06/21 10:06:53;;;;;;;5.05;2.95;;;;;;;;;;5103546;27;20019;-68
2021/06/21 10:09:19;;;;;;;5.53;3.20;;;;;;;;;;5132327;27;20327;-68
2021/06/21 10:11:46;;;;;;;5.53;3.47;;;;;;;;;;5112833;27;20502;-69
2021/06/21 10:14:13;;;;;;;9.20;3.33;;;;;;;;;;5130053;27;20781;-69
2021/06/21 10:16:40;;;;;;;6.43;3.63;;;;;;;;;;5130966;27;20446;-68
2021/06/21 10:19:07;;;;;;;7.38;3.22;;;;;;;;;;5126200;27;20047;-68
2021/06/21 10:21:34;;;;;;;5.82;2.85;;;;;;;;;;5113717;27;20106;-68
2021/06/21 10:24:00;;;;;;;5.25;2.88;;;;;;;;;;5128647;27;20019;-68
2021/06/21 10:26:27;;;;;;;4.07;2.58;;;;;;;;;;5111107;27;20047;-68
2021/06/21 10:28:53;;;;;;;6.47;3.70;;;;;;;;;;5130191;27;20024;-69
2021/06/21 10:31:23;;;;;;;5.30;3.17;;;;;;;;;;5114951;27;20019;-68
2021/06/21 10:33:50;;;;;;;5.43;2.92;;;;;;;;;;5125226;27;20054;-68
2021/06/21 10:36:17;;;;;;;5.30;2.95;;;;;;;;;;5121159;27;20114;-68
2021/06/21 10:38:43;;;;;;;4.90;3.00;;;;;;;;;;5109572;28;20027;-69
2021/06/21 10:41:10;;;;;;;5.80;2.67;;;;;;;;;;5120075;27;20015;-68
2021/06/21 10:43:46;;;;;;;5.28;2.75;;;;;;;;;;5134396;27;20067;-68
2021/06/21 10:46:19;;;;;;;7.82;3.05;;;;;;;;;;5106956;28;20047;-69
2021/06/21 10:48:45;;;;;;;;;;;;;;;;;;5092298;28;20031;-68
2021/06/21 10:51:28;;;;;;;4.72;2.60;;;;;;;;;;5108729;28;19904;-69
2021/06/21 10:53:55;;;;;;;4.53;2.92;;;;;;;;;;5093668;28;20034;-69
2021/06/21 10:56:41;;;;;;;5.90;3.13;;;;;;;;;;5112265;28;20023;-69
2021/06/21 10:59:11;;;;;;;5.68;3.25;;;;;;;;;;5095296;28;20066;-68
2021/06/21 11:02:05;;;;;;;8.82;3.63;;;;;;;;;;5113782;28;20111;-69
2021/06/21 11:04:34;;;;;;;6.35;3.55;;;;;;;;;;5092556;28;20376;-69
2021/06/21 11:07:18;;;;;;;6.35;3.60;;;;;;;;;;5095188;28;20726;-69
2021/06/21 11:09:46;;;;;;;6.18;3.10;;;;;;;;;;5113862;28;20425;-69
2021/06/21 11:12:21;;;;;;;4.95;3.28;;;;;;;;;;5113676;28;20023;-69
2021/06/21 11:15:14;;;;;;;4.57;3.17;;;;;;;;;;5113811;28;20479;-68
2021/06/21 11:17:44;;;;;;;4.93;3.15;;;;;;;;;;5109663;28;20499;-68
2021/06/21 11:20:28;;;;;;;7.30;3.03;;;;;;;;;;5094806;28;20030;-70
2021/06/21 11:22:59;;;;;;;5.20;3.42;;;;;;;;;;5112924;28;20102;-69
2021/06/21 11:25:49;;;;;;;5.55;3.28;;;;;;;;;;5095533;28;20566;-70
2021/06/21 11:28:33;;;;;;;6.40;3.63;;;;;;;;;;5113014;28;20345;-70
2021/06/21 11:31:18;;;;;;;5.47;3.67;;;;;;;;;;5112984;28;20016;-70
2021/06/21 11:33:52;;;;;;;5.00;2.80;;;;;;;;;;5110517;27;20504;-69
2021/06/21 11:36:37;;;;;;;6.07;3.42;;;;;;;;;;5133982;27;20023;-69
2021/06/21 11:39:19;;;;;;;6.57;3.80;;;;;;;;;;5115297;27;20080;-69
2021/06/21 11:41:52;;;;;;;5.00;3.40;;;;;;;;;;5133169;27;20045;-69
2021/06/21 11:44:41;;;;;;;5.10;3.53;;;;;;;;;;5132782;27;20073;-70
2021/06/21 11:47:29;;;;;;;7.60;3.40;;;;;;;;;;5133544;27;20042;-70
2021/06/21 11:50:15;;;;;;;6.82;3.80;;;;;;;;;;5133207;27;20027;-69
2021/06/21 11:52:41;;;;;;;4.25;3.22;;;;;;;;;;5133651;27;20374;-70
2021/06/21 11:55:15;;;;;;;6.15;3.80;;;;;;;;;;5133174;27;20489;-70
2021/06/21 11:57:43;;;;;;;6.25;3.97;;;;;;;;;;5115346;27;20403;-70
2021/06/21 12:00:10;;;;;;;6.05;3.58;;;;;;;;;;5133672;27;20015;-70
2021/06/21 12:02:36;;;;;;;7.15;3.50;;;;;;;;;;5114857;27;20068;-70
2021/06/21 12:05:11;;;;;;;6.82;3.45;;;;;;;;;;5134002;27;20015;-69
2021/06/21 12:07:38;;;;;;;7.80;4.13;;;;;;;;;;5133710;27;20021;-70
2021/06/21 12:10:08;;;;;;;6.72;4.10;;;;;;;;;;5133299;27;20479;-70
2021/06/21 12:12:36;;;;;;;6.78;3.63;;;;;;;;;;5133665;27;20019;-70
2021/06/21 12:15:04;;;;;;;6.00;3.60;;;;;;;;;;5133595;28;20026;-69
2021/06/21 12:17:31;;;;;;;7.32;4.20;;;;;;;;;;5132919;28;20421;-69
2021/06/21 12:20:02;;;;;;;5.97;3.33;;;;;;;;;;5133453;28;20580;-70
2021/06/21 12:22:28;;;;;;;14.10;4.93;;;;;;;;;;5133313;28;20030;-68
2021/06/21 12:24:54;;;;;;;7.55;3.88;;;;;;;;;;5133122;28;20033;-69
2021/06/21 12:27:21;;;;;;;6.05;4.10;;;;;;;;;;5133649;28;20026;-69
2021/06/21 12:29:48;;;;;;;5.63;3.17;;;;;;;;;;5133176;28;20019;-68
2021/06/21 12:32:15;;;;;;;7.32;3.47;;;;;;;;;;5133382;28;20019;-68
2021/06/21 12:34:44;;;;;;;6.43;3.78;;;;;;;;;;5133385;28;20024;-69
2021/06/21 12:37:16;;;;;;;9.05;3.63;;;;;;;;;;5132885;28;20471;-70
2021/06/21 12:39:42;;;;;;;7.97;3.80;;;;;;;;;;5133471;28;20027;-68
2021/06/21 12:42:10;;;;;;;10.75;4.45;;;;;;;;;;5133186;28;20047;-69
2021/06/21 12:44:36;;;;;;;7.90;3.92;;;;;;;;;;5132913;28;20023;-69
2021/06/21 12:47:13;;;;;;;6.45;3.70;;;;;;;;;;5133477;28;20050;-69
2021/06/21 12:49:39;;;;;;;6.75;3.85;;;;;;;;;;5133226;28;20050;-69
2021/06/21 12:52:06;;;;;;;9.68;4.75;;;;;;;;;;5132819;28;20102;-69
2021/06/21 12:54:34;;;;;;;10.27;5.40;;;;;;;;;;5114828;28;20023;-69
2021/06/21 12:57:01;;;;;;;7.55;4.47;;;;;;;;;;5114807;28;20047;-69
2021/06/21 12:59:42;;;;;;;7.85;3.97;;;;;;;;;;5132662;28;20067;-69
2021/06/21 13:02:19;;;;;;;7.43;3.38;;;;;;;;;;5133174;28;20023;-69
2021/06/21 13:05:03;;;;;;;7.28;3.70;;;;;;;;;;5116125;27;20047;-69
2021/06/21 13:07:29;;;;;;;6.80;4.40;;;;;;;;;;5137134;27;20102;-68
2021/06/21 13:09:56;;;;;;;7.95;3.65;;;;;;;;;;5118490;27;20076;-68
2021/06/21 13:12:24;;;;;;;6.35;3.40;;;;;;;;;;5137060;27;20020;-69
2021/06/21 13:14:50;;;;;;;8.77;3.90;;;;;;;;;;5137029;27;20019;-69
2021/06/21 13:17:19;;;;;;;9.15;4.10;;;;;;;;;;5136484;27;20370;-68
2021/06/21 13:19:47;;;;;;;6.72;3.50;;;;;;;;;;5136455;27;20375;-68
2021/06/21 13:22:34;;;;;;;8.25;3.75;;;;;;;;;;5118275;27;20026;-69
2021/06/21 13:25:11;;;;;;;8.27;3.55;;;;;;;;;;5136892;27;20046;-69
2021/06/21 13:27:38;;;;;;;9.23;3.92;;;;;;;;;;5136540;27;20024;-68
2021/06/21 13:30:05;;;;;;;8.95;3.65;;;;;;;;;;5118098;27;20107;-68
2021/06/21 13:32:34;;;;;;;7.72;4.10;;;;;;;;;;5136532;27;20019;-68
2021/06/21 13:35:11;;;;;;;10.70;3.90;;;;;;;;;;5136123;27;20026;-69
2021/06/21 13:37:37;;;;;;;7.43;3.78;;;;;;;;;;5136284;27;20478;-68
2021/06/21 13:40:10;;;;;;;9.82;3.97;;;;;;;;;;5135966;27;20034;-69
2021/06/21 13:42:39;;;;;;;12.00;4.03;;;;;;;;;;5136709;27;20020;-69
2021/06/21 13:45:19;;;;;;;7.50;3.65;;;;;;;;;;5136346;27;20034;-69
2021/06/21 13:47:47;;;;;;;7.47;4.40;;;;;;;;;;5135891;27;20023;-69
2021/06/21 13:50:14;;;;;;;9.95;4.53;;;;;;;;;;5117773;27;20452;-69
2021/06/21 13:52:43;;;;;;;9.93;3.88;;;;;;;;;;5136115;27;20497;-68
2021/06/21 13:55:11;;;;;;;7.65;4.07;;;;;;;;;;5135685;27;20471;-69
2021/06/21 13:57:38;;;;;;;6.18;3.60;;;;;;;;;;5135867;27;20023;-69
2021/06/21 14:00:09;;;;;;;7.15;4.07;;;;;;;;;;5135977;27;20027;-68
2021/06/21 14:02:36;;;;;;;6.63;3.70;;;;;;;;;;5135517;27;20356;-69
2021/06/21 14:05:03;;;;;;;7.47;4.00;;;;;;;;;;5136344;27;20510;-69
2021/06/21 14:07:29;;;;;;;10.60;4.20;;;;;;;;;;5136252;27;20062;-69
2021/06/21 14:09:56;;;;;;;5.00;3.17;;;;;;;;;;5135503;27;20015;-68
2021/06/21 14:12:23;;;;;;;9.70;4.65;;;;;;;;;;5117317;27;20027;-69
2021/06/21 14:14:49;;;;;;;10.90;3.80;;;;;;;;;;5135839;27;20054;-68
2021/06/21 14:17:16;;;;;;;10.63;4.05;;;;;;;;;;5135011;27;20444;-69
2021/06/21 14:19:42;;;;;;;6.25;3.55;;;;;;;;;;5117282;27;20025;-69
2021/06/21 14:22:08;;;;;;;7.50;3.90;;;;;;;;;;5135481;27;20020;-69
2021/06/21 14:24:34;;;;;;;7.47;3.67;;;;;;;;;;5116640;27;20031;-69
2021/06/21 14:27:01;;;;;;;8.88;3.92;;;;;;;;;;5135597;27;20020;-69
2021/06/21 14:29:27;;;;;;;12.00;4.32;;;;;;;;;;5135103;27;20471;-69
2021/06/21 14:31:53;;;;;;;14.20;4.10;;;;;;;;;;5135265;27;20050;-69
2021/06/21 14:34:19;;;;;;;9.45;3.53;;;;;;;;;;5135308;27;20122;-69
2021/06/21 14:36:46;;;;;;;9.20;3.75;;;;;;;;;;5134806;27;20412;-69
2021/06/21 14:39:12;;;;;;;8.05;3.42;;;;;;;;;;5135088;27;20039;-69
2021/06/21 14:41:39;;;;;;;8.48;3.85;;;;;;;;;;5135192;27;20019;-69
2021/06/21 14:44:05;;;;;;;8.38;4.05;;;;;;;;;;5134682;27;20040;-69
2021/06/21 14:46:31;;;;;;;8.15;4.35;;;;;;;;;;5135290;27;20098;-69
2021/06/21 14:48:59;;;;;;;8.25;3.58;;;;;;;;;;5116560;27;20496;-69
2021/06/21 14:51:25;;;;;;;8.30;3.90;;;;;;;;;;5134605;27;20049;-69
2021/06/21 14:53:54;;;;;;;9.95;3.72;;;;;;;;;;5134965;27;20030;-68
2021/06/21 14:56:20;;;;;;;8.40;4.03;;;;;;;;;;5134966;27;20020;-68
2021/06/21 14:58:47;;;;;;;4.70;3.05;;;;;;;;;;5134465;27;20027;-69
2021/06/21 15:01:13;;;;;;;9.25;3.50;;;;;;;;;;5134809;27;20463;-69
2021/06/21 15:03:39;;;;;;;8.00;3.83;;;;;;;;;;5134624;27;20072;-68
2021/06/21 15:06:26;;;;;;;12.95;4.32;;;;;;;;;;5134446;27;20374;-68
2021/06/21 15:08:55;;;;;;;14.90;4.97;;;;;;;;;;5134815;27;20690;-68
2021/06/21 15:11:21;;;;;;;13.07;5.32;;;;;;;;;;5116055;27;20019;-68
2021/06/21 15:13:48;;;;;;;10.73;4.57;;;;;;;;;;5133962;27;20024;-68
2021/06/21 15:16:14;;;;;;;9.35;4.47;;;;;;;;;;5116019;27;20023;-68
2021/06/21 15:18:40;;;;;;;9.20;4.45;;;;;;;;;;5115263;27;20125;-68
2021/06/21 15:21:07;;;;;;;7.68;3.95;;;;;;;;;;5115951;27;20030;-68
2021/06/21 15:23:33;;;;;;;11.27;4.15;;;;;;;;;;5134286;27;20027;-68
2021/06/21 15:26:00;;;;;;;9.75;4.35;;;;;;;;;;5133909;27;20022;-68
2021/06/21 15:28:26;;;;;;;9.93;5.00;;;;;;;;;;5115570;27;20030;-68
2021/06/21 15:30:54;;;;;;;7.30;4.63;;;;;;;;;;5134162;27;20141;-68
2021/06/21 15:33:23;;;;;;;9.95;4.50;;;;;;;;;;5115303;27;20031;-68
2021/06/21 15:35:50;;;;;;;14.77;5.07;;;;;;;;;;5134163;27;20543;-69
2021/06/21 15:38:17;;;;;;;9.20;4.57;;;;;;;;;;5133931;27;20035;-68
2021/06/21 15:40:44;;;;;;;17.13;4.72;;;;;;;;;;5115286;27;20051;-68